Hamersville, OH (45130)

8:19 AM EST on January 29, 2015 (GMT -0500)
Hamersville, Ohio 45130 | Change Station
CLOSE
Current Station
Personal Weather Station
Location: Hamersville, OH
Elevation: 968 ft
Nearby Weather Stations

Elev 968 ft 38.90 °N, 83.94 °W | Updated 21 seconds ago

Overcast
Overcast
36.7 °F
Feels Like 30 °F
N
9.9
Wind Variable Wind from SW

Today
High -- | Low -- °F
--% Chance of Precip.
Yesterday
High -- | Low -- °F
Precip. -- in
7:44 AM 5:53 PM
Waxing Gibbous, 74% visible
Pressure 29.88 in
Visibility 10.0 miles
Clouds Overcast 8500 ft
Windchill 30 °F
Dew Point 30 °F
Humidity 78%
Rainfall 0.07 in
Snow Depth Not available.
UV 0 out of 12
Pollen .10 out of 12
Air Quality Not available.
Flu Activity Not available.
METAR KI69 291317Z AUTO 20008G16KT 10SM OVC085 03/00 A2988 RMK AO1

More Conditions Fewer Conditions

Pressure 29.88 in
Visibility 10.0 miles
Clouds Overcast 8500 ft
Windchill 30 °F
Dew Point 30 °F
Humidity 78%
Rainfall 0.07 in
Snow Depth Not available.
UV 0 out of 12
Pollen .10 out of 12
Air Quality Not available.
Flu Activity Not available.
METAR KI69 291317Z AUTO 20008G16KT 10SM OVC085 03/00 A2988 RMK AO1

More Conditions Fewer Conditions

10-Day Weather Forecast

Almanac

Astronomy

Jan. 29, 2015 Rise Set
Actual Time
Civil Twilight
Nautical Twilight
Astronomical Twilight
Moon
Length of Visible Light
Length of Day
Tomorrow will be .
, % of the Moon is Illuminated

Today's Extremes

State Highs State Lows

Community

WunderPhotos

Upload Photos

1,791,426 photos uploaded!

WunderBlogs® & News

Nearby

Air Quality

  Air Quality AQ Index Pollutant
Not available.

Snow Depth

Station Depth Elevation

Earthquake Activity

City Distance Mag. Time & Date
Minimum magnitude displayed is 2.5.

Coastal Water Temperatures

Place Temperature

Nearby Weather Stations